Time;durP1;ratioP1;P1;durP2;ratioP2;P2;SDS_P1;SDS_P2;PMS_P1;PMS_P2;Temp;Humidity;BMP_temperature;BMP_pressure;BME280_temperature;BME280_humidity;BME280_pressure;Samples;Min_cycle;Max_cycle;Signal;HPM_P1;HPM_P2
2022/04/30 00:03:16;;;;;;;10.20;6.05;;;;;;;7.12;65.48;101569.75;8700239;33;20300;-74
2022/04/30 00:08:25;;;;;;;8.63;5.30;;;;;;;7.05;65.05;101571.88;8694281;33;20437;-74
2022/04/30 00:13:28;;;;;;;10.55;5.78;;;;;;;6.95;65.73;101562.53;8694995;33;20889;-74
2022/04/30 00:18:33;;;;;;;10.80;5.65;;;;;;;6.90;65.82;101565.41;8695376;33;20468;-74
2022/04/30 00:23:36;;;;;;;9.00;5.78;;;;;;;6.75;66.01;101556.28;8699538;33;20619;-74
2022/04/30 00:28:39;;;;;;;10.48;5.53;;;;;;;7.00;65.59;101556.03;8699284;33;20139;-74
2022/04/30 00:33:48;;;;;;;8.60;5.18;;;;;;;6.90;65.74;101548.53;8700373;33;20501;-74
2022/04/30 00:38:51;;;;;;;8.48;4.97;;;;;;;6.87;65.79;101544.19;8700997;33;20525;-74
2022/04/30 00:43:56;;;;;;;7.65;4.88;;;;;;;6.81;66.04;101533.78;8698984;33;20574;-74
2022/04/30 00:49:02;;;;;;;10.63;6.22;;;;;;;6.71;66.37;101532.47;8696292;33;20192;-74
2022/04/30 00:54:08;;;;;;;11.63;5.72;;;;;;;6.79;66.42;101533.84;8696023;33;20390;-74
2022/04/30 00:59:17;;;;;;;7.65;5.35;;;;;;;6.78;66.39;101540.13;8694538;33;20669;-74
2022/04/30 01:04:21;;;;;;;9.25;5.93;;;;;;;6.79;66.49;101536.50;8700065;33;20236;-74
2022/04/30 01:09:28;;;;;;;9.45;5.45;;;;;;;6.69;66.55;101527.22;8697776;33;20450;-74
2022/04/30 01:14:32;;;;;;;11.05;5.97;;;;;;;6.70;66.44;101520.91;8697554;33;20479;-74
2022/04/30 01:19:39;;;;;;;8.98;5.85;;;;;;;6.57;66.87;101522.44;8700305;33;20188;-74
2022/04/30 01:24:44;;;;;;;11.77;5.75;;;;;;;6.54;66.93;101517.22;8700528;32;20146;-74
2022/04/30 01:29:48;;;;;;;10.85;6.35;;;;;;;6.46;67.49;101514.91;8698708;33;20156;-74
2022/04/30 01:40:14;;;;;;;16.08;6.57;;;;;;;6.48;67.33;101509.50;8690499;32;20526;-74
2022/04/30 01:45:18;;;;;;;9.43;6.80;;;;;;;6.45;67.41;101504.31;8686274;33;20158;-74
2022/04/30 01:50:21;;;;;;;9.95;5.68;;;;;;;6.26;67.84;101504.28;8688889;33;20518;-74
2022/04/30 01:55:26;;;;;;;11.65;6.15;;;;;;;6.07;68.35;101497.09;8686082;33;20495;-74
2022/04/30 02:00:36;;;;;;;13.55;6.63;;;;;;;6.09;68.53;101497.91;8685557;33;20138;-74
2022/04/30 02:05:42;;;;;;;14.07;5.93;;;;;;;6.04;69.17;101497.25;8685633;33;20228;-75
2022/04/30 02:10:48;;;;;;;9.70;6.30;;;;;;;5.87;69.03;101494.44;8686470;33;20189;-74
2022/04/30 02:15:53;;;;;;;11.00;6.70;;;;;;;5.78;69.77;101490.38;8694144;33;20513;-74
2022/04/30 02:20:57;;;;;;;13.52;7.30;;;;;;;5.72;69.83;101480.84;8695433;33;20154;-74
2022/04/30 02:26:04;;;;;;;12.93;6.97;;;;;;;5.71;69.93;101476.44;8703425;33;20281;-74
2022/04/30 02:31:07;;;;;;;14.38;7.05;;;;;;;5.55;70.61;101475.38;8713284;33;20902;-74
2022/04/30 02:36:15;;;;;;;11.70;6.38;;;;;;;5.47;70.90;101475.69;8714778;33;20969;-74
2022/04/30 02:41:21;;;;;;;12.45;7.15;;;;;;;5.71;70.55;101471.13;8717028;33;20142;-74
2022/04/30 02:46:24;;;;;;;11.85;6.65;;;;;;;5.73;70.18;101474.59;8711267;33;20456;-74
2022/04/30 02:51:27;;;;;;;11.85;6.72;;;;;;;5.73;70.21;101461.25;8703800;33;20392;-74
2022/04/30 02:56:32;;;;;;;11.95;7.20;;;;;;;5.81;70.18;101455.56;8702997;33;20409;-74
2022/04/30 03:01:36;;;;;;;10.98;7.28;;;;;;;5.77;70.00;101455.78;8698638;33;20335;-74
2022/04/30 03:06:52;;;;;;;13.25;7.10;;;;;;;5.86;69.83;101453.56;8698013;33;20259;-74
2022/04/30 03:11:58;;;;;;;10.40;6.13;;;;;;;5.48;70.83;101455.22;8699004;33;20178;-74
2022/04/30 03:22:21;;;;;;;21.27;9.57;;;;;;;5.53;71.37;101455.91;8696579;33;20529;-74
2022/04/30 03:27:26;;;;;;;16.00;6.68;;;;;;;5.23;72.18;101455.41;8727864;27;20417;-73
2022/04/30 03:32:29;;;;;;;13.30;6.75;;;;;;;5.39;71.93;101447.63;8757451;32;20219;-76
2022/04/30 03:37:33;;;;;;;12.52;7.18;;;;;;;5.65;71.97;101444.72;8755033;32;20430;-76
2022/04/30 03:42:38;;;;;;;14.02;6.78;;;;;;;5.76;71.43;101430.94;8753459;32;20438;-76
2022/04/30 03:47:41;;;;;;;13.18;6.72;;;;;;;5.86;71.02;101424.22;8753895;32;20459;-76
2022/04/30 03:52:44;;;;;;;14.23;7.18;;;;;;;5.94;70.57;101427.41;8773868;32;20169;-76
2022/04/30 03:57:48;;;;;;;17.55;7.93;;;;;;;5.92;70.66;101426.66;8745055;32;20279;-76
2022/04/30 04:02:52;;;;;;;13.70;7.45;;;;;;;5.86;70.42;101426.91;8748092;32;21083;-75
2022/04/30 04:07:58;;;;;;;14.55;7.65;;;;;;;5.84;70.45;101428.78;8754733;32;20145;-74
2022/04/30 04:18:19;;;;;;;12.82;7.07;;;;;;;5.77;70.81;101437.97;8766105;32;20413;-75
2022/04/30 04:23:23;;;;;;;12.95;7.90;;;;;;;5.80;71.26;101432.50;8755983;32;20423;-76
2022/04/30 04:28:28;;;;;;;14.02;7.53;;;;;;;5.81;71.01;101430.69;8752214;32;20672;-75
2022/04/30 04:33:31;;;;;;;14.88;7.78;;;;;;;5.90;71.11;101436.50;8753422;32;20191;-76
2022/04/30 04:38:35;;;;;;;16.60;7.93;;;;;;;5.83;71.29;101445.69;8752632;32;20149;-75
2022/04/30 04:44:49;;;;;;;14.75;8.23;;;;;;;5.95;71.38;101438.94;8754752;32;20144;-75
2022/04/30 04:49:54;;;;;;;12.27;7.50;;;;;;;6.15;71.09;101444.25;8752682;32;20400;-76
2022/04/30 04:55:03;;;;;;;12.68;8.07;;;;;;;6.27;70.94;101447.31;8752372;32;20470;-75
2022/04/30 05:00:10;;;;;;;13.85;7.50;;;;;;;6.29;70.71;101443.63;8749251;32;20412;-76
2022/04/30 05:05:15;;;;;;;14.23;8.65;;;;;;;6.37;70.55;101444.13;8754770;32;20417;-75
2022/04/30 05:10:18;;;;;;;14.38;8.05;;;;;;;6.53;70.10;101448.78;8755164;32;20141;-75
2022/04/30 05:15:21;;;;;;;14.77;8.45;;;;;;;6.60;69.99;101456.38;8757582;32;20287;-75
2022/04/30 05:20:26;;;;;;;16.05;7.93;;;;;;;6.81;69.68;101448.31;8758528;32;20536;-75
2022/04/30 05:25:45;;;;;;;13.25;8.63;;;;;;;6.89;68.86;101456.84;8758563;32;20405;-76
2022/04/30 05:30:49;;;;;;;12.90;7.55;;;;;;;6.88;68.83;101460.44;8758485;32;20485;-75
2022/04/30 05:35:57;;;;;;;15.98;8.55;;;;;;;7.04;69.13;101463.22;8757147;32;20195;-75
2022/04/30 05:41:01;;;;;;;18.05;7.78;;;;;;;7.15;68.95;101465.38;8756905;32;20591;-76
2022/04/30 05:46:06;;;;;;;13.40;8.23;;;;;;;7.00;68.74;101457.19;8754668;32;20438;-75
2022/04/30 05:51:11;;;;;;;17.65;8.10;;;;;;;6.91;68.71;101462.09;8749975;32;20313;-75
2022/04/30 05:56:14;;;;;;;14.18;8.30;;;;;;;7.13;68.85;101461.91;8746341;32;20545;-75
2022/04/30 06:01:17;;;;;;;11.93;7.22;;;;;;;7.40;68.36;101468.53;8743673;32;20383;-74
2022/04/30 06:06:22;;;;;;;12.65;7.82;;;;;;;7.58;67.91;101461.41;8751323;32;20879;-75
2022/04/30 06:11:25;;;;;;;13.90;7.05;;;;;;;7.77;67.48;101463.16;8757728;32;20420;-75
2022/04/30 06:16:28;;;;;;;14.15;8.40;;;;;;;7.56;67.30;101467.78;8774699;32;20440;-75
2022/04/30 06:21:33;;;;;;;11.45;6.93;;;;;;;7.85;66.90;101464.47;8767987;32;20510;-76
2022/04/30 06:26:36;;;;;;;14.93;7.50;;;;;;;8.06;66.65;101473.16;8779992;32;20149;-76
2022/04/30 06:31:39;;;;;;;16.30;8.00;;;;;;;8.23;66.18;101466.03;8758727;32;20142;-75
2022/04/30 06:36:44;;;;;;;16.10;7.88;;;;;;;8.34;66.34;101469.88;8772888;32;20420;-75
2022/04/30 06:41:47;;;;;;;13.60;7.65;;;;;;;8.39;65.32;101472.28;8750233;32;20566;-75
2022/04/30 06:46:50;;;;;;;14.90;8.25;;;;;;;8.29;65.76;101468.41;8751055;32;20162;-75
2022/04/30 06:51:54;;;;;;;14.25;7.75;;;;;;;9.00;65.71;101463.53;8751433;32;20141;-75
2022/04/30 06:57:11;;;;;;;11.20;6.43;;;;;;;9.61;63.60;101461.75;8751808;32;20879;-75
2022/04/30 07:02:17;;;;;;;12.40;7.45;;;;;;;9.85;62.27;101456.72;8755596;32;20145;-75
2022/04/30 07:07:23;;;;;;;11.15;7.22;;;;;;;9.84;61.09;101464.84;8760724;32;20194;-74
2022/04/30 07:12:26;;;;;;;12.45;7.30;;;;;;;9.63;61.25;101462.53;8756410;32;20279;-75
2022/04/30 07:17:29;;;;;;;10.30;6.75;;;;;;;9.55;61.46;101462.13;8753283;32;20634;-75
2022/04/30 07:22:33;;;;;;;14.73;7.72;;;;;;;9.54;61.45;101459.53;8754949;32;20237;-75
2022/04/30 07:27:36;;;;;;;11.00;7.25;;;;;;;9.52;61.49;101465.00;8751825;32;20430;-75
2022/04/30 07:32:40;;;;;;;13.88;6.68;;;;;;;9.55;61.05;101461.28;8756338;32;20490;-75
2022/04/30 07:37:44;;;;;;;11.40;5.95;;;;;;;9.60;60.91;101470.75;8761197;32;20413;-75
2022/04/30 07:42:47;;;;;;;12.43;6.90;;;;;;;9.89;59.76;101460.97;8763435;32;20505;-75
2022/04/30 07:47:51;;;;;;;12.13;6.03;;;;;;;9.85;59.63;101458.56;8783348;32;20575;-75
2022/04/30 07:52:56;;;;;;;11.30;6.78;;;;;;;9.93;59.67;101462.53;8755153;32;20436;-75
2022/04/30 07:57:59;;;;;;;9.40;5.70;;;;;;;10.06;58.86;101467.13;8755136;32;20463;-75
2022/04/30 08:03:03;;;;;;;10.27;5.28;;;;;;;10.01;57.96;101461.16;8754859;32;21063;-76
2022/04/30 08:08:08;;;;;;;6.53;4.72;;;;;;;10.24;57.20;101468.69;8754761;32;20145;-74
2022/04/30 08:13:11;;;;;;;7.85;4.00;;;;;;;10.39;56.03;101470.41;8758256;32;20482;-74
2022/04/30 08:18:15;;;;;;;7.90;4.10;;;;;;;10.54;55.44;101468.56;8758302;32;21096;-74
2022/04/30 08:23:19;;;;;;;7.15;4.45;;;;;;;10.90;54.88;101461.78;8702098;32;20555;-74
2022/04/30 08:28:22;;;;;;;9.80;4.90;;;;;;;11.17;54.39;101460.94;8692195;33;20566;-75
2022/04/30 08:33:26;;;;;;;7.35;4.40;;;;;;;11.30;53.81;101466.34;8700589;33;20399;-74
2022/04/30 08:38:30;;;;;;;9.02;4.90;;;;;;;12.19;52.41;101452.16;8699970;33;20190;-75
2022/04/30 08:43:34;;;;;;;8.23;4.75;;;;;;;12.45;50.50;101455.69;8702064;33;20860;-75
2022/04/30 08:48:38;;;;;;;8.57;4.03;;;;;;;12.80;49.88;101456.69;8701733;33;20131;-75
2022/04/30 08:53:43;;;;;;;8.85;5.07;;;;;;;13.24;48.54;101454.34;8714134;32;20406;-75
2022/04/30 08:58:47;;;;;;;9.07;4.30;;;;;;;13.04;48.46;101450.47;8713592;33;20652;-75
2022/04/30 09:03:50;;;;;;;6.95;4.13;;;;;;;12.93;49.62;101448.56;8714242;33;20275;-75
2022/04/30 09:08:54;;;;;;;5.80;3.60;;;;;;;13.85;47.52;101446.09;8713227;33;20141;-75
2022/04/30 09:13:59;;;;;;;6.38;3.25;;;;;;;14.30;45.58;101444.31;8684043;33;20416;-76
2022/04/30 09:19:04;;;;;;;10.57;4.68;;;;;;;14.13;45.62;101439.41;8672184;33;20181;-75
2022/04/30 09:24:14;;;;;;;7.13;4.00;;;;;;;14.28;46.80;101438.16;8675004;33;20445;-75
2022/04/30 09:29:22;;;;;;;8.13;4.88;;;;;;;14.42;44.93;101439.78;8671172;33;20493;-74
2022/04/30 09:39:48;;;;;;;10.18;4.95;;;;;;;13.48;46.19;101436.31;8666229;33;20539;-73
2022/04/30 09:44:53;;;;;;;9.02;5.20;;;;;;;13.59;46.52;101426.56;8671487;33;20510;-75
2022/04/30 09:55:21;;;;;;;7.32;4.97;;;;;;;14.45;43.37;101430.56;8632370;33;20289;-74
2022/04/30 10:00:24;;;;;;;9.27;5.35;;;;;;;14.47;43.90;101417.81;8669122;33;21220;-74
2022/04/30 10:05:28;;;;;;;8.70;6.32;;;;;;;13.88;45.03;101422.44;8667563;32;20416;-73
2022/04/30 10:10:46;;;;;;;8.65;6.30;;;;;;;13.92;46.09;101405.00;8667242;33;20508;-73
2022/04/30 10:15:53;;;;;;;11.18;7.05;;;;;;;13.68;46.71;101406.91;8686537;33;20229;-74
2022/04/30 10:21:00;;;;;;;9.75;7.18;;;;;;;13.50;46.88;101401.13;8698330;33;20551;-74
2022/04/30 10:26:08;;;;;;;10.38;7.10;;;;;;;13.17;47.42;101399.16;8696027;33;20154;-74
2022/04/30 10:31:11;;;;;;;10.45;7.75;;;;;;;12.51;48.77;101409.47;8695773;33;20361;-73
2022/04/30 10:36:14;;;;;;;7.68;6.57;;;;;;;12.30;50.22;101406.47;8696125;33;20745;-73
2022/04/30 10:41:18;;;;;;;8.05;6.28;;;;;;;11.98;51.32;101406.06;8694823;33;20960;-75
2022/04/30 10:46:25;;;;;;;8.18;6.03;;;;;;;11.81;52.66;101410.78;8662872;33;20403;-74
2022/04/30 10:51:40;;;;;;;12.88;6.70;;;;;;;11.60;53.79;101405.09;8660830;33;20184;-74
2022/04/30 10:56:45;;;;;;;12.77;7.47;;;;;;;11.22;54.70;101402.34;8656284;33;20180;-75
2022/04/30 11:01:49;;;;;;;18.90;7.90;;;;;;;11.70;53.93;101392.69;8659116;33;20402;-74
2022/04/30 11:06:56;;;;;;;14.23;7.47;;;;;;;11.81;53.94;101396.47;8660047;33;20155;-74
2022/04/30 11:12:00;;;;;;;8.77;7.07;;;;;;;11.90;53.13;101403.91;8662099;33;20515;-74
2022/04/30 11:17:04;;;;;;;11.10;7.88;;;;;;;12.05;52.24;101392.06;8670409;33;20452;-75
2022/04/30 11:22:09;;;;;;;10.00;7.28;;;;;;;12.86;51.01;101381.72;8671531;33;20217;-73
2022/04/30 11:27:13;;;;;;;11.07;7.63;;;;;;;13.00;50.32;101365.34;8669650;33;20474;-73
2022/04/30 11:32:21;;;;;;;11.80;7.55;;;;;;;13.07;49.93;101365.75;8673153;33;20437;-74
2022/04/30 11:37:24;;;;;;;10.60;7.80;;;;;;;13.69;49.10;101365.47;8641632;33;20499;-74
2022/04/30 11:42:29;;;;;;;8.55;6.88;;;;;;;14.33;47.50;101357.56;8639306;33;20495;-73
2022/04/30 11:47:33;;;;;;;12.48;7.60;;;;;;;14.19;46.65;101354.28;8663217;33;20143;-73
2022/04/30 11:52:36;;;;;;;10.90;7.20;;;;;;;13.78;47.00;101353.91;8677996;33;20616;-74
2022/04/30 11:57:44;;;;;;;8.43;6.65;;;;;;;13.63;47.18;101350.59;8674934;33;20528;-74
2022/04/30 12:02:49;;;;;;;9.02;6.78;;;;;;;13.90;46.79;101343.97;8675606;33;20650;-74
2022/04/30 12:08:01;;;;;;;10.00;5.65;;;;;;;14.52;44.69;101339.88;8702133;33;20127;-75
2022/04/30 12:13:06;;;;;;;7.72;6.70;;;;;;;14.39;45.67;101337.31;8699972;33;20146;-74
2022/04/30 12:29:20;;;;;;;8.13;6.30;;;;;;;14.18;45.83;101323.72;8531629;33;20233;-73
2022/04/30 12:34:27;;;;;;;6.68;5.72;;;;;;;13.80;45.32;101319.56;8695373;33;20249;-73
2022/04/30 12:39:30;;;;;;;6.57;5.88;;;;;;;13.92;46.72;101320.41;8735898;33;20188;-74
2022/04/30 12:44:34;;;;;;;8.23;4.88;;;;;;;14.08;45.82;101314.63;8723382;33;20181;-73
2022/04/30 12:49:37;;;;;;;7.38;5.53;;;;;;;14.29;45.36;101309.28;8718089;33;20419;-73
2022/04/30 12:54:41;;;;;;;8.10;5.43;;;;;;;14.16;45.72;101307.63;8721938;33;20651;-73
2022/04/30 12:59:46;;;;;;;7.65;5.72;;;;;;;14.23;45.95;101307.09;8722530;33;20398;-73
2022/04/30 13:04:52;;;;;;;6.65;5.15;;;;;;;14.19;45.97;101294.84;8719339;32;20485;-73
2022/04/30 13:15:17;;;;;;;10.85;4.78;;;;;;;14.80;44.05;101290.59;8686838;33;20304;-74
2022/04/30 13:20:20;;;;;;;7.20;4.75;;;;;;;14.98;43.25;101287.34;8677963;33;20146;-73
2022/04/30 13:25:23;;;;;;;8.02;5.15;;;;;;;15.26;42.35;101285.81;8673261;33;20963;-73
2022/04/30 13:30:29;;;;;;;8.85;5.13;;;;;;;15.40;43.20;101276.53;8685205;33;20402;-73
2022/04/30 13:35:32;;;;;;;6.50;5.40;;;;;;;15.34;42.10;101272.50;8666830;33;20419;-75
2022/04/30 13:40:35;;;;;;;7.50;5.80;;;;;;;15.25;42.54;101263.31;8669502;33;20423;-73
2022/04/30 13:45:43;;;;;;;6.00;5.00;;;;;;;15.20;42.54;101270.97;8672350;33;20146;-73
2022/04/30 13:50:47;;;;;;;6.50;4.80;;;;;;;15.33;43.10;101261.75;8670375;33;20519;-72
2022/04/30 13:55:50;;;;;;;6.30;5.05;;;;;;;15.81;40.48;101244.91;8671069;33;20900;-73
2022/04/30 14:00:55;;;;;;;5.93;4.88;;;;;;;15.54;39.93;101246.38;8683340;33;20432;-73
2022/04/30 14:06:00;;;;;;;5.30;4.20;;;;;;;15.63;41.16;101253.69;8695775;33;20503;-74
2022/04/30 14:11:03;;;;;;;7.55;4.70;;;;;;;15.00;42.64;101259.16;8670795;33;20419;-74
2022/04/30 14:16:08;;;;;;;6.28;4.13;;;;;;;14.54;43.63;101254.97;8693125;33;20410;-74
2022/04/30 14:21:11;;;;;;;7.35;4.18;;;;;;;14.71;43.97;101249.97;8667215;33;20507;-73
2022/04/30 14:26:15;;;;;;;7.32;3.97;;;;;;;15.03;42.40;101247.22;8678024;33;20424;-75
2022/04/30 14:31:20;;;;;;;6.28;4.10;;;;;;;15.71;41.52;101231.31;8675369;33;20426;-75
2022/04/30 14:36:24;;;;;;;5.13;4.30;;;;;;;16.70;39.74;101229.50;8674680;33;20422;-74
2022/04/30 14:41:27;;;;;;;7.85;4.10;;;;;;;17.52;38.41;101219.88;8671607;33;20312;-74
2022/04/30 14:46:31;;;;;;;5.30;3.95;;;;;;;18.07;35.80;101219.94;8669245;33;20146;-74
2022/04/30 14:51:34;;;;;;;5.60;3.65;;;;;;;16.57;37.72;101221.66;8646271;33;20411;-73
2022/04/30 14:56:37;;;;;;;5.05;3.40;;;;;;;17.40;37.29;101211.06;8641633;33;20920;-72
2022/04/30 15:01:42;;;;;;;4.70;3.25;;;;;;;18.72;33.92;101197.06;8641304;33;20446;-74
2022/04/30 15:06:45;;;;;;;6.28;3.60;;;;;;;19.15;34.89;101187.19;8641082;33;20481;-75
2022/04/30 15:11:48;;;;;;;6.88;3.72;;;;;;;19.84;34.10;101188.03;8643357;33;20436;-74
2022/04/30 15:16:53;;;;;;;7.38;3.72;;;;;;;20.18;33.68;101182.47;8664746;33;20571;-74
2022/04/30 15:22:00;;;;;;;7.40;3.47;;;;;;;19.05;33.85;101192.72;8641302;33;20500;-73
2022/04/30 15:27:04;;;;;;;4.18;3.00;;;;;;;16.85;36.69;101202.78;8633664;33;20197;-74
2022/04/30 15:32:10;;;;;;;6.00;3.60;;;;;;;15.88;38.34;101197.31;8633768;33;20982;-73
2022/04/30 15:37:13;;;;;;;5.53;3.28;;;;;;;15.59;39.42;101195.38;8633535;33;20154;-73
2022/04/30 15:42:16;;;;;;;4.15;3.45;;;;;;;15.45;40.17;101188.47;8639486;33;20383;-75
2022/04/30 15:52:41;;;;;;;3.67;3.30;;;;;;;15.16;39.28;101184.75;8634649;33;20449;-74
2022/04/30 15:57:44;;;;;;;5.97;3.58;;;;;;;15.19;39.87;101195.31;8635206;33;20444;-73
2022/04/30 16:02:48;;;;;;;3.63;3.17;;;;;;;14.72;40.15;101192.19;8640026;33;20492;-72
2022/04/30 16:07:52;;;;;;;6.15;3.78;;;;;;;14.73;40.83;101186.66;8643549;33;20135;-73
2022/04/30 16:12:58;;;;;;;4.40;3.90;;;;;;;14.69;40.92;101187.03;8643594;33;20475;-73
2022/04/30 16:18:03;;;;;;;4.47;3.80;;;;;;;16.14;39.50;101176.81;8649824;33;20442;-73
2022/04/30 16:23:06;;;;;;;6.93;4.50;;;;;;;17.14;37.71;101175.59;8656330;33;20544;-73
2022/04/30 16:28:10;;;;;;;5.10;3.78;;;;;;;16.00;38.40;101177.22;8659079;33;20404;-73
2022/04/30 16:33:14;;;;;;;4.50;3.67;;;;;;;15.30;39.21;101173.56;8660372;33;20158;-73
2022/04/30 16:38:17;;;;;;;7.25;3.97;;;;;;;14.82;40.71;101172.31;8659075;33;20460;-74
2022/04/30 16:43:21;;;;;;;5.97;4.65;;;;;;;14.38;41.62;101171.59;8661519;33;20410;-73
2022/04/30 16:48:26;;;;;;;5.28;4.22;;;;;;;14.05;42.53;101171.69;8653658;33;20135;-73
2022/04/30 16:53:29;;;;;;;6.10;4.10;;;;;;;14.07;43.33;101165.19;8653268;33;20157;-72
2022/04/30 16:58:32;;;;;;;5.03;3.80;;;;;;;14.00;42.63;101172.06;8652210;33;20222;-73
2022/04/30 17:03:37;;;;;;;6.82;4.20;;;;;;;13.96;43.23;101164.34;8651700;33;20209;-74
2022/04/30 17:08:41;;;;;;;4.90;3.55;;;;;;;13.74;43.24;101163.44;8662398;33;20463;-73
2022/04/30 17:13:44;;;;;;;7.20;4.20;;;;;;;13.63;43.32;101169.72;8639748;33;20413;-74
2022/04/30 17:18:49;;;;;;;6.95;4.75;;;;;;;13.46;43.47;101171.06;8640770;33;20489;-73
2022/04/30 17:23:52;;;;;;;6.53;4.68;;;;;;;13.24;43.74;101169.22;8646321;33;20242;-73
2022/04/30 17:28:57;;;;;;;4.97;4.05;;;;;;;13.18;44.27;101171.53;8638936;33;20591;-74
2022/04/30 17:39:28;;;;;;;6.05;4.30;;;;;;;13.05;44.54;101172.53;8637311;33;20143;-74
2022/04/30 17:44:31;;;;;;;4.82;4.30;;;;;;;12.95;44.93;101173.38;8641322;33;20203;-74
2022/04/30 17:49:36;;;;;;;10.07;6.68;;;;;;;12.81;45.97;101172.63;8638446;33;20312;-74
2022/04/30 17:54:39;;;;;;;6.82;5.38;;;;;;;12.67;46.53;101175.53;8637263;33;20308;-72
2022/04/30 17:59:42;;;;;;;5.88;5.28;;;;;;;12.63;46.23;101176.75;8637452;33;20150;-73
2022/04/30 18:04:47;;;;;;;6.22;4.65;;;;;;;12.62;47.27;101174.19;8643398;33;20407;-73
2022/04/30 18:09:50;;;;;;;7.18;4.88;;;;;;;12.47;47.26;101176.19;8666372;33;20163;-74
2022/04/30 18:14:54;;;;;;;9.45;4.10;;;;;;;12.39;47.46;101180.31;8643031;33;20235;-73
2022/04/30 18:19:58;;;;;;;6.57;4.10;;;;;;;12.20;47.92;101189.91;8641926;33;20453;-73
2022/04/30 18:25:03;;;;;;;4.88;4.03;;;;;;;11.94;48.18;101177.41;8643912;33;20249;-73
2022/04/30 18:30:08;;;;;;;6.13;4.10;;;;;;;11.76;48.76;101186.84;8643370;33;20433;-74
2022/04/30 18:35:12;;;;;;;6.40;3.97;;;;;;;11.63;49.34;101189.59;8639395;33;20304;-74
2022/04/30 18:40:15;;;;;;;7.70;4.05;;;;;;;11.44;49.61;101206.19;8639810;33;20958;-74
2022/04/30 18:45:19;;;;;;;7.40;4.13;;;;;;;11.37;49.80;101204.03;8639110;33;20983;-74
2022/04/30 18:50:23;;;;;;;18.25;12.27;;;;;;;11.35;50.39;101208.66;8640738;33;20143;-74
2022/04/30 19:00:59;;;;;;;7.25;5.53;;;;;;;11.15;50.58;101220.84;8651689;33;20425;-74
2022/04/30 19:06:06;;;;;;;5.28;3.80;;;;;;;11.11;50.59;101230.94;8654702;33;20419;-74
2022/04/30 19:11:09;;;;;;;5.55;4.25;;;;;;;11.00;50.88;101234.38;8643224;33;20242;-74
2022/04/30 19:16:13;;;;;;;6.38;4.53;;;;;;;10.96;51.14;101234.69;8640186;33;20147;-74
2022/04/30 19:21:19;;;;;;;6.30;4.63;;;;;;;10.93;51.42;101232.19;8640766;33;20645;-74
2022/04/30 19:26:22;;;;;;;8.23;6.95;;;;;;;10.85;51.85;101232.72;8637983;33;20439;-74
2022/04/30 19:31:26;;;;;;;30.63;19.95;;;;;;;10.83;52.76;101238.22;8629810;33;20543;-73
2022/04/30 19:36:30;;;;;;;9.30;6.10;;;;;;;10.73;52.76;101244.34;8633337;33;20559;-73
2022/04/30 19:41:33;;;;;;;10.70;5.22;;;;;;;10.61;53.34;101246.88;8636844;33;20503;-74
2022/04/30 19:46:38;;;;;;;4.93;4.45;;;;;;;10.52;53.57;101252.84;8636613;33;20441;-74
2022/04/30 19:51:43;;;;;;;6.60;4.43;;;;;;;10.37;53.53;101261.97;8636226;33;20139;-74
2022/04/30 19:56:47;;;;;;;5.47;3.92;;;;;;;10.31;53.67;101246.22;8634651;33;20416;-74
2022/04/30 20:01:50;;;;;;;7.28;4.40;;;;;;;10.30;53.82;101249.88;8634419;33;20135;-74
2022/04/30 20:06:55;;;;;;;6.60;4.28;;;;;;;10.17;54.37;101247.16;8636117;33;20539;-73
2022/04/30 20:17:18;;;;;;;7.20;4.35;;;;;;;9.90;55.15;101253.38;8641104;33;20490;-73
2022/04/30 20:22:22;;;;;;;5.80;4.40;;;;;;;9.84;55.26;101253.72;8644450;33;20383;-74
2022/04/30 20:27:26;;;;;;;6.18;4.10;;;;;;;9.93;55.06;101257.69;8639007;33;20441;-73
2022/04/30 20:37:55;;;;;;;5.88;3.80;;;;;;;10.01;54.41;101258.03;8640711;33;20606;-74
2022/04/30 20:42:58;;;;;;;9.63;4.13;;;;;;;10.07;54.59;101254.97;8659724;33;20153;-75
2022/04/30 20:48:03;;;;;;;6.72;4.45;;;;;;;10.12;54.63;101252.84;8675723;33;20186;-74
2022/04/30 20:53:07;;;;;;;5.97;4.47;;;;;;;10.15;54.74;101252.63;8694675;33;20224;-76
2022/04/30 20:58:11;;;;;;;7.18;5.43;;;;;;;10.23;54.58;101256.63;8698274;33;20552;-74
2022/04/30 21:03:14;;;;;;;6.90;4.25;;;;;;;10.20;55.56;101256.81;8700267;33;20150;-73
2022/04/30 21:08:19;;;;;;;7.40;4.80;;;;;;;9.98;55.30;101247.47;8693762;33;20201;-74
2022/04/30 21:13:23;;;;;;;7.70;4.28;;;;;;;9.99;55.87;101243.00;8695419;33;20421;-75
2022/04/30 21:18:26;;;;;;;7.57;4.38;;;;;;;9.93;55.45;101246.94;8711164;33;20463;-75
2022/04/30 21:23:31;;;;;;;9.20;4.43;;;;;;;10.06;55.16;101247.00;8692690;33;20426;-74
2022/04/30 21:28:39;;;;;;;7.38;4.85;;;;;;;10.02;55.38;101254.38;8671432;33;21096;-76
2022/04/30 21:33:44;;;;;;;4.90;4.20;;;;;;;10.02;55.69;101251.69;8668594;33;20412;-76
2022/04/30 21:38:48;;;;;;;5.47;4.80;;;;;;;9.88;55.86;101246.38;8663833;33;20146;-75
2022/04/30 21:43:52;;;;;;;5.93;4.47;;;;;;;9.79;56.08;101252.28;8660612;33;20456;-76
2022/04/30 21:48:55;;;;;;;6.45;4.25;;;;;;;9.81;56.68;101240.50;8666205;33;20155;-76
2022/04/30 21:53:59;;;;;;;8.23;5.43;;;;;;;9.78;55.95;101238.00;8665656;33;20155;-76
2022/04/30 22:04:24;;;;;;;7.07;5.40;;;;;;;9.87;55.94;101245.53;8650403;33;20242;-76
2022/04/30 22:09:29;;;;;;;8.63;5.25;;;;;;;9.84;55.98;101236.75;8635154;33;20189;-76
2022/04/30 22:14:32;;;;;;;6.97;5.70;;;;;;;9.76;55.69;101234.56;8634640;33;20147;-75
2022/04/30 22:19:36;;;;;;;11.40;5.15;;;;;;;9.70;55.58;101238.50;8634344;33;20147;-76
2022/04/30 22:24:41;;;;;;;6.50;5.05;;;;;;;9.69;55.62;101225.19;8637839;33;20408;-76
2022/04/30 22:29:44;;;;;;;6.57;4.85;;;;;;;9.68;55.65;101231.50;8635640;33;20204;-76
2022/04/30 22:34:48;;;;;;;6.15;5.10;;;;;;;9.65;55.56;101223.66;8639001;33;20420;-76
2022/04/30 22:45:13;;;;;;;7.53;4.63;;;;;;;9.53;54.88;101217.25;8633996;33;20566;-75
2022/04/30 22:50:16;;;;;;;8.15;4.72;;;;;;;9.54;54.68;101218.97;8636804;33;20242;-76
2022/04/30 22:55:21;;;;;;;5.75;4.32;;;;;;;9.42;55.15;101223.28;8640074;33;20459;-76
2022/04/30 23:00:24;;;;;;;6.53;4.75;;;;;;;9.38;55.80;101232.50;8644052;33;20203;-76
2022/04/30 23:05:29;;;;;;;8.95;5.00;;;;;;;9.35;56.04;101226.44;8643543;33;20531;-75
2022/04/30 23:10:34;;;;;;;7.38;4.50;;;;;;;9.35;56.08;101234.50;8643558;33;20453;-76
2022/04/30 23:15:36;;;;;;;7.00;4.95;;;;;;;9.35;55.73;101223.78;8639675;33;20455;-76
2022/04/30 23:20:40;;;;;;;5.90;4.45;;;;;;;9.28;55.20;101223.31;8638227;33;20945;-75
2022/04/30 23:25:45;;;;;;;6.55;4.47;;;;;;;9.31;55.76;101227.63;8638625;33;20178;-76
2022/04/30 23:30:49;;;;;;;7.03;4.95;;;;;;;9.35;55.96;101229.13;8638298;33;20209;-73
2022/04/30 23:35:52;;;;;;;6.80;4.70;;;;;;;9.20;55.50;101223.78;8637300;33;20147;-74
2022/04/30 23:40:57;;;;;;;5.88;4.15;;;;;;;9.18;55.51;101222.13;8636791;33;20994;-76
2022/04/30 23:46:00;;;;;;;5.68;4.43;;;;;;;9.20;55.56;101225.59;8638097;33;20454;-75
2022/04/30 23:51:05;;;;;;;6.80;4.95;;;;;;;9.23;55.15;101222.72;8640248;33;20431;-75
2022/04/30 23:56:09;;;;;;;7.72;4.50;;;;;;;9.10;55.07;101225.28;8639958;33;20710;-75
